createdAt,value
2023-05-19T00:02:09.307Z,11.60
2023-05-19T00:04:58.303Z,11.50
2023-05-19T00:07:47.137Z,11.50
2023-05-19T00:10:35.584Z,11.60
2023-05-19T00:13:24.104Z,11.60
2023-05-19T00:16:13.035Z,11.60
2023-05-19T00:19:03.311Z,11.60
2023-05-19T00:21:51.564Z,11.60
2023-05-19T00:24:39.661Z,11.60
2023-05-19T00:27:27.781Z,11.50
2023-05-19T00:30:16.282Z,11.60
2023-05-19T00:33:04.529Z,11.50
2023-05-19T00:35:54.044Z,11.50
2023-05-19T00:38:42.202Z,11.30
2023-05-19T00:41:30.503Z,11.20
2023-05-19T00:44:19.043Z,11.10
2023-05-19T00:47:07.573Z,11.20
2023-05-19T00:49:55.745Z,11.20
2023-05-19T00:52:45.319Z,11.30
2023-05-19T00:55:34.519Z,11.30
2023-05-19T00:58:23.910Z,11.40
2023-05-19T01:01:14.590Z,11.50
2023-05-19T01:04:04.114Z,11.50
2023-05-19T01:06:54.903Z,11.60
2023-05-19T01:09:44.616Z,11.60
2023-05-19T01:12:32.770Z,11.70
2023-05-19T01:15:20.964Z,11.70
2023-05-19T01:18:11.262Z,11.70
2023-05-19T01:21:05.880Z,11.70
2023-05-19T01:24:01.532Z,11.80
2023-05-19T01:27:03.367Z,11.80
2023-05-19T01:30:00.036Z,11.80
2023-05-19T01:32:49.762Z,11.80
2023-05-19T01:35:38.791Z,11.80
2023-05-19T01:38:27.275Z,11.80
2023-05-19T01:41:15.853Z,11.90
2023-05-19T01:44:04.097Z,11.80
2023-05-19T01:46:52.705Z,11.90
2023-05-19T01:49:42.164Z,11.90
2023-05-19T01:52:30.522Z,11.90
2023-05-19T01:55:18.818Z,11.80
2023-05-19T01:58:10.531Z,11.80
2023-05-19T02:01:04.180Z,11.90
2023-05-19T02:03:58.197Z,11.80
2023-05-19T02:06:51.052Z,11.80
2023-05-19T02:09:40.808Z,11.80
2023-05-19T02:12:29.952Z,11.70
2023-05-19T02:15:19.491Z,11.70
2023-05-19T02:18:11.569Z,11.60
2023-05-19T02:20:59.723Z,11.60
2023-05-19T02:23:49.393Z,11.60
2023-05-19T02:26:37.525Z,11.70
2023-05-19T02:29:25.904Z,11.60
2023-05-19T02:32:14.285Z,11.60
2023-05-19T02:35:02.642Z,11.60
2023-05-19T02:37:50.748Z,11.60
2023-05-19T02:40:40.378Z,11.50
2023-05-19T02:43:30.625Z,11.50
2023-05-19T02:46:18.759Z,11.50
2023-05-19T02:49:06.878Z,11.50
2023-05-19T02:51:55.054Z,11.40
2023-05-19T02:54:43.192Z,11.50
2023-05-19T02:57:33.191Z,11.40
2023-05-19T03:00:21.435Z,11.40
2023-05-19T03:03:10.509Z,11.40
2023-05-19T03:05:58.739Z,11.30
2023-05-19T03:08:46.833Z,11.30
2023-05-19T03:11:35.037Z,11.30
2023-05-19T03:14:24.758Z,11.20
2023-05-19T03:17:13.002Z,11.10
2023-05-19T03:20:02.083Z,11.00
2023-05-19T03:22:50.583Z,11.00
2023-05-19T03:25:38.707Z,10.90
2023-05-19T03:28:27.382Z,10.90
2023-05-19T03:31:17.213Z,10.90
2023-05-19T03:34:05.336Z,10.80
2023-05-19T03:36:53.437Z,10.80
2023-05-19T03:39:41.585Z,10.70
2023-05-19T03:42:29.690Z,10.70
2023-05-19T03:45:17.791Z,10.70
2023-05-19T03:48:07.605Z,10.60
2023-05-19T03:50:55.764Z,10.60
2023-05-19T03:53:45.662Z,10.70
2023-05-19T03:56:34.170Z,10.60
2023-05-19T03:59:23.645Z,10.60
2023-05-19T04:02:11.894Z,10.70
2023-05-19T04:05:01.594Z,10.70
2023-05-19T04:07:49.684Z,10.70
2023-05-19T04:10:37.777Z,10.70
2023-05-19T04:13:26.178Z,10.70
2023-05-19T04:16:14.570Z,10.70
2023-05-19T04:19:02.750Z,10.70
2023-05-19T04:21:52.965Z,10.70
2023-05-19T04:24:41.094Z,10.70
2023-05-19T04:27:30.140Z,10.70
2023-05-19T04:30:30.240Z,10.80
2023-05-19T04:33:20.136Z,10.90
2023-05-19T04:36:10.737Z,10.90
2023-05-19T04:39:06.199Z,10.90
2023-05-19T04:41:54.754Z,11.00
2023-05-19T04:44:42.922Z,11.00
2023-05-19T04:47:31.072Z,11.00
2023-05-19T04:50:23.540Z,11.10
2023-05-19T04:53:11.620Z,11.10
2023-05-19T04:56:01.499Z,11.10
2023-05-19T04:58:49.612Z,11.20
2023-05-19T05:01:40.916Z,11.20
2023-05-19T05:04:29.134Z,11.20
2023-05-19T05:07:17.306Z,11.20
2023-05-19T05:10:05.836Z,11.20
2023-05-19T05:12:55.988Z,11.30
2023-05-19T05:15:44.461Z,11.40
2023-05-19T05:18:32.856Z,11.40
2023-05-19T05:21:21.368Z,11.50
2023-05-19T05:24:10.245Z,11.50
2023-05-19T05:26:59.014Z,11.60
2023-05-19T05:29:49.458Z,11.60
2023-05-19T05:32:38.434Z,11.70
2023-05-19T05:35:27.036Z,11.70
2023-05-19T05:38:15.181Z,11.80
2023-05-19T05:41:03.661Z,11.80
2023-05-19T05:43:52.122Z,11.80
2023-05-19T05:46:42.381Z,11.90
2023-05-19T05:49:30.962Z,11.90
2023-05-19T05:52:19.900Z,11.90
2023-05-19T05:55:08.945Z,12.00
2023-05-19T05:57:58.769Z,12.00
2023-05-19T06:00:47.905Z,12.10
2023-05-19T06:03:38.108Z,12.10
2023-05-19T06:06:26.276Z,12.10
2023-05-19T06:09:14.403Z,12.20
2023-05-19T06:12:02.874Z,12.20
2023-05-19T06:14:52.084Z,12.20
2023-05-19T06:17:40.352Z,12.20
2023-05-19T06:20:30.082Z,12.30
2023-05-19T06:23:18.681Z,12.40
2023-05-19T06:26:06.830Z,12.40
2023-05-19T06:28:54.926Z,12.40
2023-05-19T06:31:43.137Z,12.50
2023-05-19T06:34:31.272Z,12.50
2023-05-19T06:37:21.705Z,12.50
2023-05-19T06:40:10.439Z,12.50
2023-05-19T06:42:58.584Z,12.60
2023-05-19T06:45:46.691Z,12.60
2023-05-19T06:48:34.879Z,12.60
2023-05-19T06:51:22.992Z,12.60
2023-05-19T06:54:15.957Z,12.60
2023-05-19T06:57:04.495Z,12.60
2023-05-19T06:59:52.598Z,12.70
2023-05-19T07:02:41.052Z,12.80
2023-05-19T07:05:29.378Z,12.90
2023-05-19T07:08:17.537Z,13.00
2023-05-19T07:11:07.116Z,13.10
2023-05-19T07:13:55.260Z,13.20
2023-05-19T07:16:43.471Z,13.20
2023-05-19T07:19:31.672Z,13.30
2023-05-19T07:22:19.872Z,13.40
2023-05-19T07:25:08.337Z,13.50
2023-05-19T07:27:57.873Z,13.50
2023-05-19T07:30:46.009Z,13.60
2023-05-19T07:33:34.122Z,13.70
2023-05-19T07:36:22.313Z,13.70
2023-05-19T07:39:10.795Z,13.80
2023-05-19T07:41:59.408Z,13.80
2023-05-19T07:44:48.930Z,13.80
2023-05-19T07:47:37.194Z,13.90
2023-05-19T07:50:25.466Z,13.90
2023-05-19T07:53:13.607Z,13.90
2023-05-19T07:56:01.693Z,14.00
2023-05-19T07:58:49.933Z,14.00
2023-05-19T08:01:39.406Z,14.10
2023-05-19T08:04:27.873Z,14.20
2023-05-19T08:07:16.012Z,14.40
2023-05-19T08:10:04.527Z,14.50
2023-05-19T08:12:52.656Z,14.50
2023-05-19T08:15:41.217Z,14.60
2023-05-19T08:18:30.843Z,14.70
2023-05-19T08:21:18.903Z,14.80
2023-05-19T08:24:07.343Z,14.80
2023-05-19T08:26:55.679Z,14.80
2023-05-19T08:29:43.807Z,14.90
2023-05-19T08:32:32.003Z,15.00
2023-05-19T08:35:21.752Z,15.10
2023-05-19T08:38:09.876Z,15.20
2023-05-19T08:40:58.735Z,15.30
2023-05-19T08:43:46.934Z,15.40
2023-05-19T08:46:35.201Z,15.50
2023-05-19T08:49:25.704Z,15.50
2023-05-19T08:52:21.046Z,15.50
2023-05-19T08:55:11.099Z,15.50
2023-05-19T08:57:59.315Z,15.50
2023-05-19T09:00:48.372Z,15.60
2023-05-19T09:03:38.449Z,15.70
2023-05-19T09:06:27.351Z,15.80
2023-05-19T09:09:17.404Z,15.90
2023-05-19T09:12:05.662Z,16.00
2023-05-19T09:14:54.077Z,16.20
2023-05-19T09:17:43.206Z,16.40
2023-05-19T09:20:31.785Z,16.40
2023-05-19T09:23:21.009Z,16.50
2023-05-19T09:26:10.870Z,16.60
2023-05-19T09:28:59.279Z,16.70
2023-05-19T09:31:51.550Z,16.80
2023-05-19T09:34:41.884Z,16.90
2023-05-19T09:37:30.081Z,17.00
2023-05-19T09:40:18.299Z,17.20
2023-05-19T09:43:08.911Z,17.50
2023-05-19T09:46:00.028Z,17.60
2023-05-19T09:48:48.228Z,17.80
2023-05-19T09:51:36.876Z,18.00
2023-05-19T09:54:25.403Z,18.30
2023-05-19T09:57:13.659Z,18.50
2023-05-19T10:00:04.175Z,18.60
2023-05-19T10:02:52.625Z,18.80
2023-05-19T10:05:41.727Z,18.80
2023-05-19T10:08:30.737Z,18.90
2023-05-19T10:11:19.149Z,19.00
2023-05-19T10:14:07.733Z,19.00
2023-05-19T10:16:58.309Z,19.00
2023-05-19T10:19:46.705Z,19.00
2023-05-19T10:22:34.918Z,19.20
2023-05-19T10:25:23.160Z,19.50
2023-05-19T10:28:12.985Z,19.60
2023-05-19T10:31:02.508Z,19.60
2023-05-19T10:34:01.416Z,19.50
2023-05-19T10:36:50.728Z,19.60
2023-05-19T10:39:40.738Z,19.70
2023-05-19T10:42:34.949Z,19.80
2023-05-19T10:45:23.871Z,20.00
2023-05-19T10:48:12.333Z,20.00
2023-05-19T10:51:02.108Z,19.80
2023-05-19T10:53:50.272Z,19.80
2023-05-19T10:56:42.529Z,19.80
2023-05-19T10:59:31.577Z,19.80
2023-05-19T11:02:38.598Z,19.80
2023-05-19T11:05:29.458Z,19.90
2023-05-19T11:08:32.147Z,20.00
2023-05-19T11:11:20.280Z,20.10
2023-05-19T11:14:08.402Z,20.20
2023-05-19T11:16:57.951Z,20.50
2023-05-19T11:19:53.651Z,20.90
2023-05-19T11:22:41.740Z,21.20
2023-05-19T11:25:43.452Z,21.40
2023-05-19T11:28:31.591Z,21.40
2023-05-19T11:31:23.022Z,21.70
2023-05-19T11:34:11.412Z,22.00
2023-05-19T11:36:59.893Z,22.00
2023-05-19T11:39:48.208Z,22.20
2023-05-19T11:42:37.955Z,22.40
2023-05-19T11:45:26.996Z,22.60
2023-05-19T11:48:16.033Z,22.60
2023-05-19T11:51:04.373Z,22.50
2023-05-19T11:53:54.345Z,22.50
2023-05-19T11:56:42.860Z,22.60
2023-05-19T11:59:35.484Z,22.50
2023-05-19T12:02:25.069Z,22.30
2023-05-19T12:05:19.045Z,22.20
2023-05-19T12:08:07.652Z,22.30
2023-05-19T12:10:56.260Z,22.50
2023-05-19T12:13:45.119Z,22.70
2023-05-19T12:16:37.464Z,22.70
2023-05-19T12:19:25.900Z,22.70
2023-05-19T12:22:14.663Z,22.50
2023-05-19T12:25:05.097Z,22.30
2023-05-19T12:27:56.169Z,22.20
2023-05-19T12:30:48.218Z,22.50
2023-05-19T12:33:37.691Z,22.70
2023-05-19T12:36:27.336Z,23.10
2023-05-19T12:39:15.623Z,23.30
2023-05-19T12:42:04.111Z,23.10
2023-05-19T12:44:52.780Z,22.70
2023-05-19T12:47:40.932Z,22.60
2023-05-19T12:50:32.926Z,22.80
2023-05-19T12:53:21.341Z,22.80
2023-05-19T12:56:12.982Z,22.80
2023-05-19T12:59:01.733Z,23.00
2023-05-19T13:01:56.348Z,23.10
2023-05-19T13:04:45.046Z,23.20
2023-05-19T13:07:35.793Z,23.30
2023-05-19T13:10:24.119Z,23.30
2023-05-19T13:13:12.434Z,23.30
2023-05-19T13:16:00.559Z,23.20
2023-05-19T13:18:48.726Z,23.20
2023-05-19T13:21:36.922Z,23.20
2023-05-19T13:24:26.442Z,23.10
2023-05-19T13:27:14.533Z,23.10
2023-05-19T13:30:02.654Z,22.90
2023-05-19T13:32:52.502Z,22.70
2023-05-19T13:35:40.923Z,22.70
2023-05-19T13:38:30.433Z,22.80
2023-05-19T13:41:24.475Z,22.80
2023-05-19T13:44:12.568Z,22.80
2023-05-19T13:47:00.884Z,22.80
2023-05-19T13:49:49.021Z,22.90
2023-05-19T13:52:38.291Z,23.00
2023-05-19T13:55:27.472Z,23.30
2023-05-19T13:58:18.049Z,23.40
2023-05-19T14:01:06.235Z,23.40
2023-05-19T14:03:54.485Z,23.50
2023-05-19T14:06:42.710Z,23.70
2023-05-19T14:09:30.850Z,23.80
2023-05-19T14:12:19.316Z,23.90
2023-05-19T14:15:11.430Z,24.00
2023-05-19T14:17:59.822Z,24.10
2023-05-19T14:20:48.009Z,24.40
2023-05-19T14:23:36.108Z,24.50
2023-05-19T14:26:24.336Z,24.70
2023-05-19T14:29:12.440Z,24.60
2023-05-19T14:32:03.085Z,24.20
2023-05-19T14:34:52.906Z,24.00
2023-05-19T14:37:41.077Z,23.60
2023-05-19T14:40:29.166Z,23.20
2023-05-19T14:43:17.387Z,23.40
2023-05-19T14:46:05.641Z,24.10
2023-05-19T14:48:55.118Z,24.90
2023-05-19T14:51:43.228Z,25.30
2023-05-19T14:54:31.382Z,25.30
2023-05-19T14:57:19.492Z,25.20
2023-05-19T15:00:09.251Z,25.60
2023-05-19T15:02:57.580Z,26.10
2023-05-19T15:05:47.096Z,26.00
2023-05-19T15:08:35.208Z,25.60
2023-05-19T15:11:23.463Z,25.20
2023-05-19T15:14:11.608Z,25.30
2023-05-19T15:16:59.969Z,25.50
2023-05-19T15:19:48.278Z,25.40
2023-05-19T15:22:37.733Z,25.70
2023-05-19T15:25:25.839Z,25.90
2023-05-19T15:28:14.481Z,25.60
2023-05-19T15:31:02.718Z,25.10
2023-05-19T15:33:50.878Z,24.50
2023-05-19T15:36:39.077Z,24.50
2023-05-19T15:39:28.535Z,24.70
2023-05-19T15:42:16.725Z,24.50
2023-05-19T15:45:05.157Z,24.60
2023-05-19T15:47:53.293Z,24.40
2023-05-19T15:50:41.411Z,24.10
2023-05-19T15:53:29.551Z,23.70
2023-05-19T15:56:19.873Z,23.50
2023-05-19T15:59:07.987Z,23.90
2023-05-19T16:01:56.286Z,24.50
2023-05-19T16:04:44.437Z,24.40
2023-05-19T16:07:32.592Z,24.40
2023-05-19T16:10:20.739Z,24.90
2023-05-19T16:13:10.292Z,25.10
2023-05-19T16:15:58.478Z,24.70
2023-05-19T16:18:46.622Z,24.30
2023-05-19T16:21:34.764Z,23.70
2023-05-19T16:24:22.896Z,23.40
2023-05-19T16:27:11.176Z,23.50
2023-05-19T16:30:01.176Z,23.70
2023-05-19T16:32:49.444Z,23.80
2023-05-19T16:35:37.714Z,23.60
2023-05-19T16:38:26.732Z,23.20
2023-05-19T16:41:14.943Z,22.90
2023-05-19T16:44:03.243Z,22.60
2023-05-19T16:46:52.744Z,22.70
2023-05-19T16:49:41.432Z,22.60
2023-05-19T16:52:29.630Z,22.40
2023-05-19T16:55:19.996Z,22.20
2023-05-19T16:58:08.100Z,21.90
2023-05-19T17:00:57.619Z,21.70
2023-05-19T17:03:47.087Z,21.60
2023-05-19T17:06:35.239Z,21.40
2023-05-19T17:09:25.863Z,21.40
2023-05-19T17:12:14.017Z,21.30
2023-05-19T17:15:02.139Z,21.20
2023-05-19T17:17:50.324Z,21.20
2023-05-19T17:20:39.829Z,21.40
2023-05-19T17:23:27.926Z,21.70
2023-05-19T17:26:16.781Z,22.00
2023-05-19T17:29:05.796Z,22.10
2023-05-19T17:31:54.037Z,21.90
2023-05-19T17:34:42.177Z,21.70
2023-05-19T17:37:31.664Z,21.50
2023-05-19T17:40:19.915Z,21.30
2023-05-19T17:43:08.261Z,21.00
2023-05-19T17:45:58.155Z,20.70
2023-05-19T17:48:46.966Z,20.70
2023-05-19T17:51:35.371Z,20.50
2023-05-19T17:54:26.339Z,20.40
2023-05-19T17:57:15.883Z,20.30
2023-05-19T18:00:04.635Z,20.30
2023-05-19T18:02:55.848Z,20.20
2023-05-19T18:05:44.744Z,20.10
2023-05-19T18:08:33.405Z,20.00
2023-05-19T18:11:23.314Z,20.00
2023-05-19T18:14:11.450Z,19.90
2023-05-19T18:16:59.574Z,19.80
2023-05-19T18:19:47.750Z,19.70
2023-05-19T18:22:35.901Z,19.70
2023-05-19T18:25:24.081Z,19.60
2023-05-19T18:28:13.548Z,19.50
2023-05-19T18:31:01.868Z,19.40
2023-05-19T18:33:50.144Z,19.30
2023-05-19T18:36:38.379Z,19.30
2023-05-19T18:39:28.584Z,19.20
2023-05-19T18:42:17.528Z,19.10
2023-05-19T18:45:07.694Z,19.00
2023-05-19T18:47:56.311Z,18.90
2023-05-19T18:50:44.756Z,18.80
2023-05-19T18:53:33.847Z,18.70
2023-05-19T18:56:24.931Z,18.60
2023-05-19T18:59:13.025Z,18.50
2023-05-19T19:02:03.189Z,18.40
2023-05-19T19:04:51.410Z,18.40
2023-05-19T19:07:43.196Z,18.30
2023-05-19T19:10:34.578Z,18.10
2023-05-19T19:13:22.980Z,18.10
2023-05-19T19:16:11.700Z,18.00
2023-05-19T19:19:01.379Z,18.00
2023-05-19T19:21:49.674Z,17.90
2023-05-19T19:24:38.015Z,17.80
2023-05-19T19:27:31.017Z,17.80
2023-05-19T19:30:19.283Z,17.70
2023-05-19T19:33:07.438Z,17.60
2023-05-19T19:35:57.288Z,17.60
2023-05-19T19:38:45.443Z,17.50
2023-05-19T19:41:33.860Z,17.40
2023-05-19T19:44:22.910Z,17.40
2023-05-19T19:47:11.795Z,17.30
2023-05-19T19:50:05.744Z,17.20
2023-05-19T19:52:55.296Z,17.20
2023-05-19T19:55:43.430Z,17.10
2023-05-19T19:58:31.681Z,17.10
2023-05-19T20:01:20.490Z,17.00
2023-05-19T20:04:08.912Z,16.90
2023-05-19T20:06:57.128Z,16.90
2023-05-19T20:09:46.893Z,16.80
2023-05-19T20:12:35.021Z,16.80
2023-05-19T20:15:23.120Z,16.70
2023-05-19T20:18:11.272Z,16.70
2023-05-19T20:20:59.499Z,16.60
2023-05-19T20:23:48.266Z,16.60
2023-05-19T20:26:37.788Z,16.60
2023-05-19T20:29:25.912Z,16.50
2023-05-19T20:32:14.271Z,16.40
2023-05-19T20:35:02.459Z,16.40
2023-05-19T20:37:50.619Z,16.30
2023-05-19T20:40:38.718Z,16.30
2023-05-19T20:43:28.199Z,16.30
2023-05-19T20:46:16.473Z,16.20
2023-05-19T20:49:04.622Z,16.20
2023-05-19T20:51:52.759Z,16.20
2023-05-19T20:54:40.926Z,16.10
2023-05-19T20:57:29.060Z,16.00
2023-05-19T21:00:18.967Z,16.00
2023-05-19T21:03:07.171Z,16.00
2023-05-19T21:05:55.584Z,15.90
2023-05-19T21:08:44.187Z,15.90
2023-05-19T21:11:32.372Z,15.90
2023-05-19T21:14:20.487Z,15.80
2023-05-19T21:17:10.019Z,15.80
2023-05-19T21:19:59.733Z,15.80
2023-05-19T21:22:47.851Z,15.70
2023-05-19T21:25:36.104Z,15.70
2023-05-19T21:28:24.241Z,15.60
2023-05-19T21:31:12.464Z,15.60
2023-05-19T21:34:01.956Z,15.50
2023-05-19T21:36:50.461Z,15.50
2023-05-19T21:39:38.586Z,15.40
2023-05-19T21:42:26.687Z,15.30
2023-05-19T21:45:14.787Z,15.30
2023-05-19T21:48:02.994Z,15.20
2023-05-19T21:50:54.967Z,15.20
2023-05-19T21:53:43.179Z,15.20
2023-05-19T21:56:31.284Z,15.10
2023-05-19T21:59:23.159Z,15.10
2023-05-19T22:02:11.373Z,15.10
2023-05-19T22:04:59.522Z,15.00
2023-05-19T22:07:48.976Z,15.00
2023-05-19T22:10:37.397Z,15.00
2023-05-19T22:13:25.705Z,15.00
2023-05-19T22:16:13.896Z,15.00
2023-05-19T22:19:02.060Z,15.00
2023-05-19T22:21:53.681Z,14.90
2023-05-19T22:24:48.532Z,14.90
2023-05-19T22:27:36.749Z,14.90
2023-05-19T22:30:24.939Z,14.80
2023-05-19T22:33:13.107Z,14.80
2023-05-19T22:36:01.325Z,14.80
2023-05-19T22:38:49.443Z,14.70
2023-05-19T22:41:38.935Z,14.70
2023-05-19T22:44:27.035Z,14.70
2023-05-19T22:47:15.132Z,14.60
2023-05-19T22:50:03.235Z,14.60
2023-05-19T22:52:51.534Z,14.60
2023-05-19T22:55:39.856Z,14.60
2023-05-19T22:58:29.336Z,14.50
2023-05-19T23:01:17.800Z,14.50
2023-05-19T23:04:06.420Z,14.50
2023-05-19T23:06:54.764Z,14.40
2023-05-19T23:09:42.999Z,14.40
2023-05-19T23:12:31.233Z,14.30
2023-05-19T23:15:20.788Z,14.30
2023-05-19T23:18:08.934Z,14.30
2023-05-19T23:20:57.092Z,14.20
2023-05-19T23:23:45.375Z,14.10
2023-05-19T23:26:33.476Z,14.10
2023-05-19T23:29:21.583Z,14.10
2023-05-19T23:32:11.303Z,14.10
2023-05-19T23:34:59.483Z,14.00
2023-05-19T23:37:47.604Z,14.10
2023-05-19T23:40:35.780Z,14.00
2023-05-19T23:43:23.906Z,14.00
2023-05-19T23:46:12.247Z,14.00
2023-05-19T23:49:01.792Z,14.00
2023-05-19T23:51:50.014Z,14.00
2023-05-19T23:54:38.121Z,14.00
2023-05-19T23:57:26.489Z,13.90
